sensor_id;sensor_type;location;lat;lon;timestamp;pressure;altitude;pressure_sealevel;temperature;humidity
804;BME280;25687;49.976;8.240;2023-09-07T00:00:36;100473.25;;;16.21;100.00
804;BME280;25687;49.976;8.240;2023-09-07T00:03:01;100464.66;;;16.20;100.00
804;BME280;25687;49.976;8.240;2023-09-07T00:05:27;100463.81;;;16.20;100.00
804;BME280;25687;49.976;8.240;2023-09-07T00:07:52;100464.97;;;16.16;100.00
804;BME280;25687;49.976;8.240;2023-09-07T00:10:17;100459.91;;;16.14;100.00
804;BME280;25687;49.976;8.240;2023-09-07T00:12:43;100462.63;;;16.12;100.00
804;BME280;25687;49.976;8.240;2023-09-07T00:15:09;100463.28;;;16.03;100.00
804;BME280;25687;49.976;8.240;2023-09-07T00:17:35;100467.03;;;15.99;100.00
804;BME280;25687;49.976;8.240;2023-09-07T00:20:01;100468.25;;;16.06;100.00
804;BME280;25687;49.976;8.240;2023-09-07T00:22:29;100464.94;;;16.04;100.00
804;BME280;25687;49.976;8.240;2023-09-07T00:24:54;100465.56;;;15.95;100.00
804;BME280;25687;49.976;8.240;2023-09-07T00:27:19;100459.25;;;15.99;100.00
804;BME280;25687;49.976;8.240;2023-09-07T00:29:45;100461.00;;;15.98;100.00
804;BME280;25687;49.976;8.240;2023-09-07T00:32:10;100465.13;;;16.01;100.00
804;BME280;25687;49.976;8.240;2023-09-07T00:34:35;100460.25;;;16.09;100.00
804;BME280;25687;49.976;8.240;2023-09-07T00:37:00;100459.91;;;16.14;100.00
804;BME280;25687;49.976;8.240;2023-09-07T00:39:26;100466.09;;;16.24;100.00
804;BME280;25687;49.976;8.240;2023-09-07T00:41:51;100451.56;;;16.22;100.00
804;BME280;25687;49.976;8.240;2023-09-07T00:44:16;100454.00;;;16.12;100.00
804;BME280;25687;49.976;8.240;2023-09-07T00:46:42;100451.22;;;16.02;100.00
804;BME280;25687;49.976;8.240;2023-09-07T00:49:10;100454.88;;;16.00;100.00
804;BME280;25687;49.976;8.240;2023-09-07T00:51:36;100448.47;;;15.92;100.00
804;BME280;25687;49.976;8.240;2023-09-07T00:54:01;100448.28;;;15.82;100.00
804;BME280;25687;49.976;8.240;2023-09-07T00:56:26;100452.75;;;15.80;100.00
804;BME280;25687;49.976;8.240;2023-09-07T00:58:53;100452.25;;;15.75;100.00
804;BME280;25687;49.976;8.240;2023-09-07T01:01:19;100448.53;;;15.67;100.00
804;BME280;25687;49.976;8.240;2023-09-07T01:03:44;100446.88;;;15.65;100.00
804;BME280;25687;49.976;8.240;2023-09-07T01:06:18;100442.94;;;15.60;100.00
804;BME280;25687;49.976;8.240;2023-09-07T01:08:49;100448.88;;;15.62;100.00
804;BME280;25687;49.976;8.240;2023-09-07T01:11:15;100436.00;;;15.60;100.00
804;BME280;25687;49.976;8.240;2023-09-07T01:13:40;100437.88;;;15.58;100.00
804;BME280;25687;49.976;8.240;2023-09-07T01:16:07;100437.69;;;15.48;100.00
804;BME280;25687;49.976;8.240;2023-09-07T01:18:33;100428.13;;;15.49;100.00
804;BME280;25687;49.976;8.240;2023-09-07T01:20:59;100433.13;;;15.39;100.00
804;BME280;25687;49.976;8.240;2023-09-07T01:23:26;100436.75;;;15.37;100.00
804;BME280;25687;49.976;8.240;2023-09-07T01:25:52;100435.03;;;15.37;100.00
804;BME280;25687;49.976;8.240;2023-09-07T01:31:40;100436.88;;;15.35;100.00
804;BME280;25687;49.976;8.240;2023-09-07T01:34:05;100441.25;;;15.35;100.00
804;BME280;25687;49.976;8.240;2023-09-07T01:36:31;100443.09;;;15.32;100.00
804;BME280;25687;49.976;8.240;2023-09-07T01:38:57;100436.06;;;15.35;100.00
804;BME280;25687;49.976;8.240;2023-09-07T01:41:22;100432.84;;;15.31;100.00
804;BME280;25687;49.976;8.240;2023-09-07T01:43:48;100430.16;;;15.32;100.00
804;BME280;25687;49.976;8.240;2023-09-07T01:46:13;100427.94;;;15.39;100.00
804;BME280;25687;49.976;8.240;2023-09-07T01:48:38;100436.25;;;15.31;100.00
804;BME280;25687;49.976;8.240;2023-09-07T01:51:03;100436.88;;;15.35;100.00
804;BME280;25687;49.976;8.240;2023-09-07T01:53:29;100442.38;;;15.30;100.00
804;BME280;25687;49.976;8.240;2023-09-07T01:55:54;100437.53;;;15.26;100.00
804;BME280;25687;49.976;8.240;2023-09-07T01:58:21;100434.19;;;15.24;100.00
804;BME280;25687;49.976;8.240;2023-09-07T02:00:46;100434.63;;;15.17;100.00
804;BME280;25687;49.976;8.240;2023-09-07T02:03:11;100426.13;;;15.15;100.00
804;BME280;25687;49.976;8.240;2023-09-07T02:05:37;100424.69;;;15.11;100.00
804;BME280;25687;49.976;8.240;2023-09-07T02:08:02;100420.03;;;15.04;100.00
804;BME280;25687;49.976;8.240;2023-09-07T02:10:29;100425.81;;;14.94;100.00
804;BME280;25687;49.976;8.240;2023-09-07T02:12:55;100423.66;;;14.88;100.00
804;BME280;25687;49.976;8.240;2023-09-07T02:15:22;100423.03;;;14.84;100.00
804;BME280;25687;49.976;8.240;2023-09-07T02:17:48;100419.72;;;14.82;100.00
804;BME280;25687;49.976;8.240;2023-09-07T02:20:13;100428.00;;;14.75;100.00
804;BME280;25687;49.976;8.240;2023-09-07T02:22:39;100423.22;;;14.68;100.00
804;BME280;25687;49.976;8.240;2023-09-07T02:25:04;100425.09;;;14.66;100.00
804;BME280;25687;49.976;8.240;2023-09-07T02:27:31;100428.69;;;14.64;100.00
804;BME280;25687;49.976;8.240;2023-09-07T02:29:57;100421.34;;;14.58;100.00
804;BME280;25687;49.976;8.240;2023-09-07T02:32:22;100424.31;;;14.51;100.00
804;BME280;25687;49.976;8.240;2023-09-07T02:34:47;100426.00;;;14.52;100.00
804;BME280;25687;49.976;8.240;2023-09-07T02:37:13;100420.41;;;14.59;100.00
804;BME280;25687;49.976;8.240;2023-09-07T02:39:39;100426.00;;;14.52;100.00
804;BME280;25687;49.976;8.240;2023-09-07T02:42:05;100423.41;;;14.52;100.00
804;BME280;25687;49.976;8.240;2023-09-07T02:44:31;100420.69;;;14.54;100.00
804;BME280;25687;49.976;8.240;2023-09-07T02:46:56;100429.50;;;14.51;100.00
804;BME280;25687;49.976;8.240;2023-09-07T02:49:21;100422.97;;;14.46;100.00
804;BME280;25687;49.976;8.240;2023-09-07T02:51:46;100420.59;;;14.43;100.00
804;BME280;25687;49.976;8.240;2023-09-07T02:54:12;100415.41;;;14.43;100.00
804;BME280;25687;49.976;8.240;2023-09-07T02:56:37;100421.41;;;14.43;100.00
804;BME280;25687;49.976;8.240;2023-09-07T02:59:02;100421.91;;;14.35;100.00
804;BME280;25687;49.976;8.240;2023-09-07T03:01:28;100425.72;;;14.30;100.00
804;BME280;25687;49.976;8.240;2023-09-07T03:03:54;100424.78;;;14.31;100.00
804;BME280;25687;49.976;8.240;2023-09-07T03:06:19;100415.19;;;14.33;100.00
804;BME280;25687;49.976;8.240;2023-09-07T03:08:45;100414.25;;;14.34;100.00
804;BME280;25687;49.976;8.240;2023-09-07T03:11:11;100418.69;;;14.32;100.00
804;BME280;25687;49.976;8.240;2023-09-07T03:13:36;100415.19;;;14.33;100.00
804;BME280;25687;49.976;8.240;2023-09-07T03:16:03;100420.25;;;14.34;100.00
804;BME280;25687;49.976;8.240;2023-09-07T03:18:28;100417.03;;;14.31;100.00
804;BME280;25687;49.976;8.240;2023-09-07T03:20:55;100415.28;;;14.31;100.00
804;BME280;25687;49.976;8.240;2023-09-07T03:23:21;100420.53;;;14.30;100.00
804;BME280;25687;49.976;8.240;2023-09-07T03:25:47;100418.16;;;14.27;100.00
804;BME280;25687;49.976;8.240;2023-09-07T03:28:12;100418.56;;;14.20;100.00
804;BME280;25687;49.976;8.240;2023-09-07T03:30:38;100425.47;;;14.20;100.00
804;BME280;25687;49.976;8.240;2023-09-07T03:33:04;100428.38;;;14.15;100.00
804;BME280;25687;49.976;8.240;2023-09-07T03:35:30;100430.13;;;14.15;100.00
804;BME280;25687;49.976;8.240;2023-09-07T03:37:55;100424.94;;;14.15;100.00
804;BME280;25687;49.976;8.240;2023-09-07T03:40:20;100424.56;;;14.21;100.00
804;BME280;25687;49.976;8.240;2023-09-07T03:42:46;100429.72;;;14.21;100.00
804;BME280;25687;49.976;8.240;2023-09-07T03:45:11;100423.84;;;14.19;100.00
804;BME280;25687;49.976;8.240;2023-09-07T03:47:37;100421.56;;;14.14;100.00
804;BME280;25687;49.976;8.240;2023-09-07T03:50:03;100421.72;;;14.11;100.00
804;BME280;25687;49.976;8.240;2023-09-07T03:52:28;100416.38;;;14.14;100.00
804;BME280;25687;49.976;8.240;2023-09-07T03:54:54;100422.47;;;14.13;100.00
804;BME280;25687;49.976;8.240;2023-09-07T03:57:20;100427.75;;;14.12;100.00
804;BME280;25687;49.976;8.240;2023-09-07T03:59:46;100426.19;;;14.09;100.00
804;BME280;25687;49.976;8.240;2023-09-07T04:02:11;100431.38;;;14.09;100.00
804;BME280;25687;49.976;8.240;2023-09-07T04:04:38;100430.81;;;14.04;100.00
804;BME280;25687;49.976;8.240;2023-09-07T04:07:03;100429.88;;;14.05;100.00
804;BME280;25687;49.976;8.240;2023-09-07T04:09:28;100434.03;;;14.08;100.00
804;BME280;25687;49.976;8.240;2023-09-07T04:11:53;100433.09;;;14.09;100.00
804;BME280;25687;49.976;8.240;2023-09-07T04:14:19;100430.63;;;14.07;100.00
804;BME280;25687;49.976;8.240;2023-09-07T04:16:44;100428.59;;;13.98;100.00
804;BME280;25687;49.976;8.240;2023-09-07T04:19:09;100431.00;;;14.01;100.00
804;BME280;25687;49.976;8.240;2023-09-07T04:21:36;100436.19;;;14.01;100.00
804;BME280;25687;49.976;8.240;2023-09-07T04:24:01;100435.06;;;14.05;100.00
804;BME280;25687;49.976;8.240;2023-09-07T04:26:28;100431.75;;;14.03;100.00
804;BME280;25687;49.976;8.240;2023-09-07T04:28:54;100433.19;;;13.94;100.00
804;BME280;25687;49.976;8.240;2023-09-07T04:31:19;100435.66;;;13.96;100.00
804;BME280;25687;49.976;8.240;2023-09-07T04:33:46;100434.16;;;13.92;100.00
804;BME280;25687;49.976;8.240;2023-09-07T04:36:13;100433.78;;;13.98;100.00
804;BME280;25687;49.976;8.240;2023-09-07T04:38:40;100439.28;;;13.93;100.00
804;BME280;25687;49.976;8.240;2023-09-07T04:41:12;100448.06;;;13.91;100.00
804;BME280;25687;49.976;8.240;2023-09-07T04:43:39;100440.19;;;13.92;100.00
804;BME280;25687;49.976;8.240;2023-09-07T04:46:13;100446.56;;;13.86;100.00
804;BME280;25687;49.976;8.240;2023-09-07T04:48:40;100448.75;;;13.93;100.00
804;BME280;25687;49.976;8.240;2023-09-07T04:51:09;100443.69;;;13.91;100.00
804;BME280;25687;49.976;8.240;2023-09-07T04:53:37;100452.00;;;13.96;100.00
804;BME280;25687;49.976;8.240;2023-09-07T04:56:03;100446.31;;;14.04;100.00
804;BME280;25687;49.976;8.240;2023-09-07T04:58:29;100456.50;;;14.07;100.00
804;BME280;25687;49.976;8.240;2023-09-07T05:01:00;100448.09;;;14.03;100.00
804;BME280;25687;49.976;8.240;2023-09-07T05:03:26;100452.13;;;14.08;100.00
804;BME280;25687;49.976;8.240;2023-09-07T05:05:53;100456.91;;;14.14;100.00
804;BME280;25687;49.976;8.240;2023-09-07T05:08:18;100457.66;;;14.16;100.00
804;BME280;25687;49.976;8.240;2023-09-07T05:10:44;100458.19;;;14.21;100.00
804;BME280;25687;49.976;8.240;2023-09-07T05:13:09;100455.22;;;14.27;100.00
804;BME280;25687;49.976;8.240;2023-09-07T05:15:34;100458.19;;;14.21;100.00
804;BME280;25687;49.976;8.240;2023-09-07T05:18:00;100457.50;;;14.32;100.00
804;BME280;25687;49.976;8.240;2023-09-07T05:20:25;100463.03;;;14.40;100.00
804;BME280;25687;49.976;8.240;2023-09-07T05:22:52;100453.38;;;14.42;100.00
804;BME280;25687;49.976;8.240;2023-09-07T05:25:17;100459.53;;;14.54;100.00
804;BME280;25687;49.976;8.240;2023-09-07T05:27:45;100463.56;;;14.58;100.00
804;BME280;25687;49.976;8.240;2023-09-07T05:30:11;100470.94;;;14.64;100.00
804;BME280;25687;49.976;8.240;2023-09-07T05:32:36;100474.00;;;14.71;100.00
804;BME280;25687;49.976;8.240;2023-09-07T05:35:01;100467.16;;;14.83;100.00
804;BME280;25687;49.976;8.240;2023-09-07T05:37:27;100468.41;;;14.90;100.00
804;BME280;25687;49.976;8.240;2023-09-07T05:39:52;100469.66;;;14.97;100.00
804;BME280;25687;49.976;8.240;2023-09-07T05:42:17;100479.81;;;15.00;100.00
804;BME280;25687;49.976;8.240;2023-09-07T05:44:42;100468.63;;;15.13;100.00
804;BME280;25687;49.976;8.240;2023-09-07T05:47:08;100469.75;;;15.22;100.00
804;BME280;25687;49.976;8.240;2023-09-07T05:49:33;100478.66;;;15.30;100.00
804;BME280;25687;49.976;8.240;2023-09-07T05:51:58;100475.84;;;15.46;100.00
804;BME280;25687;49.976;8.240;2023-09-07T05:54:23;100465.03;;;15.53;100.00
804;BME280;25687;49.976;8.240;2023-09-07T05:56:49;100475.91;;;15.58;100.00
804;BME280;25687;49.976;8.240;2023-09-07T05:59:14;100475.47;;;15.77;100.00
804;BME280;25687;49.976;8.240;2023-09-07T06:01:40;100479.00;;;15.89;100.00
804;BME280;25687;49.976;8.240;2023-09-07T06:04:06;100474.19;;;16.20;100.00
804;BME280;25687;49.976;8.240;2023-09-07T06:06:31;100483.88;;;16.53;100.00
804;BME280;25687;49.976;8.240;2023-09-07T06:08:57;100481.13;;;16.79;100.00
804;BME280;25687;49.976;8.240;2023-09-07T06:11:24;100478.25;;;16.95;100.00
804;BME280;25687;49.976;8.240;2023-09-07T06:13:49;100479.91;;;17.19;100.00
804;BME280;25687;49.976;8.240;2023-09-07T06:16:14;100477.81;;;17.35;100.00
804;BME280;25687;49.976;8.240;2023-09-07T06:18:40;100487.84;;;17.40;100.00
804;BME280;25687;49.976;8.240;2023-09-07T06:21:05;100478.16;;;17.53;100.00
804;BME280;25687;49.976;8.240;2023-09-07T06:23:31;100480.97;;;17.73;100.00
804;BME280;25687;49.976;8.240;2023-09-07T06:25:56;100483.88;;;17.91;100.00
804;BME280;25687;49.976;8.240;2023-09-07T06:28:21;100484.69;;;18.14;100.00
804;BME280;25687;49.976;8.240;2023-09-07T06:30:47;100489.59;;;18.29;100.00
804;BME280;25687;49.976;8.240;2023-09-07T06:33:12;100501.63;;;18.41;100.00
804;BME280;25687;49.976;8.240;2023-09-07T06:35:37;100490.16;;;18.65;100.00
804;BME280;25687;49.976;8.240;2023-09-07T06:38:03;100492.28;;;18.92;100.00
804;BME280;25687;49.976;8.240;2023-09-07T06:40:28;100489.03;;;19.31;100.00
804;BME280;25687;49.976;8.240;2023-09-07T06:42:53;100496.66;;;20.04;100.00
804;BME280;25687;49.976;8.240;2023-09-07T06:45:19;100502.56;;;20.94;100.00
804;BME280;25687;49.976;8.240;2023-09-07T06:47:44;100506.25;;;21.77;100.00
804;BME280;25687;49.976;8.240;2023-09-07T06:50:10;100491.81;;;22.63;100.00
804;BME280;25687;49.976;8.240;2023-09-07T06:52:35;100497.38;;;23.98;95.26
804;BME280;25687;49.976;8.240;2023-09-07T06:55:00;100502.16;;;24.44;91.68
804;BME280;25687;49.976;8.240;2023-09-07T06:57:26;100503.31;;;24.25;90.38
804;BME280;25687;49.976;8.240;2023-09-07T06:59:51;100502.81;;;24.13;89.63
804;BME280;25687;49.976;8.240;2023-09-07T07:02:17;100509.53;;;23.99;90.20
804;BME280;25687;49.976;8.240;2023-09-07T07:04:42;100515.16;;;24.29;88.54
804;BME280;25687;49.976;8.240;2023-09-07T07:07:10;100516.22;;;25.18;82.08
804;BME280;25687;49.976;8.240;2023-09-07T07:09:36;100515.81;;;25.77;76.31
804;BME280;25687;49.976;8.240;2023-09-07T07:12:02;100511.38;;;24.81;82.36
804;BME280;25687;49.976;8.240;2023-09-07T07:14:28;100517.88;;;25.10;80.37
804;BME280;25687;49.976;8.240;2023-09-07T07:16:53;100516.31;;;24.85;81.65
804;BME280;25687;49.976;8.240;2023-09-07T07:19:18;100519.06;;;25.00;80.09
804;BME280;25687;49.976;8.240;2023-09-07T07:21:44;100522.13;;;25.20;79.92
804;BME280;25687;49.976;8.240;2023-09-07T07:24:09;100520.50;;;25.90;72.09
804;BME280;25687;49.976;8.240;2023-09-07T07:26:35;100522.31;;;25.18;77.19
804;BME280;25687;49.976;8.240;2023-09-07T07:29:01;100518.25;;;26.56;67.72
804;BME280;25687;49.976;8.240;2023-09-07T07:31:28;100523.16;;;26.21;67.17
804;BME280;25687;49.976;8.240;2023-09-07T07:33:53;100528.00;;;25.47;74.68
804;BME280;25687;49.976;8.240;2023-09-07T07:36:18;100527.88;;;25.23;77.45
804;BME280;25687;49.976;8.240;2023-09-07T07:38:44;100520.13;;;26.86;66.19
804;BME280;25687;49.976;8.240;2023-09-07T07:41:09;100524.97;;;26.59;66.63
804;BME280;25687;49.976;8.240;2023-09-07T07:43:34;100524.28;;;27.70;60.24
804;BME280;25687;49.976;8.240;2023-09-07T07:46:00;100522.22;;;27.65;60.38
804;BME280;25687;49.976;8.240;2023-09-07T07:48:25;100530.66;;;27.76;59.28
804;BME280;25687;49.976;8.240;2023-09-07T07:50:50;100534.06;;;27.91;54.78
804;BME280;25687;49.976;8.240;2023-09-07T07:53:16;100528.19;;;27.74;58.94
804;BME280;25687;49.976;8.240;2023-09-07T07:55:41;100534.78;;;28.22;56.37
804;BME280;25687;49.976;8.240;2023-09-07T07:58:07;100530.06;;;27.14;62.53
804;BME280;25687;49.976;8.240;2023-09-07T08:00:34;100526.69;;;28.73;54.00
804;BME280;25687;49.976;8.240;2023-09-07T08:03:00;100519.59;;;28.52;51.93
804;BME280;25687;49.976;8.240;2023-09-07T08:05:27;100526.31;;;27.38;59.79
804;BME280;25687;49.976;8.240;2023-09-07T08:07:52;100527.41;;;26.99;61.35
804;BME280;25687;49.976;8.240;2023-09-07T08:10:18;100524.56;;;26.32;66.27
804;BME280;25687;49.976;8.240;2023-09-07T08:12:44;100523.44;;;26.88;66.20
804;BME280;25687;49.976;8.240;2023-09-07T08:15:09;100517.59;;;27.08;63.93
804;BME280;25687;49.976;8.240;2023-09-07T08:17:35;100522.09;;;27.74;57.98
804;BME280;25687;49.976;8.240;2023-09-07T08:20:00;100523.31;;;27.56;57.30
804;BME280;25687;49.976;8.240;2023-09-07T08:22:25;100517.22;;;28.14;55.54
804;BME280;25687;49.976;8.240;2023-09-07T08:24:52;100517.63;;;28.39;53.26
804;BME280;25687;49.976;8.240;2023-09-07T08:27:19;100504.94;;;28.78;51.51
804;BME280;25687;49.976;8.240;2023-09-07T08:29:45;100515.59;;;28.34;53.36
804;BME280;25687;49.976;8.240;2023-09-07T08:32:16;100518.19;;;27.69;56.18
804;BME280;25687;49.976;8.240;2023-09-07T08:34:42;100512.31;;;27.52;59.43
804;BME280;25687;49.976;8.240;2023-09-07T08:37:07;100514.38;;;28.15;54.89
804;BME280;25687;49.976;8.240;2023-09-07T08:39:36;100516.94;;;29.09;53.10
804;BME280;25687;49.976;8.240;2023-09-07T08:42:02;100516.28;;;30.44;46.91
804;BME280;25687;49.976;8.240;2023-09-07T08:44:29;100519.66;;;29.77;45.16
804;BME280;25687;49.976;8.240;2023-09-07T08:46:55;100516.81;;;29.24;48.58
804;BME280;25687;49.976;8.240;2023-09-07T08:49:20;100512.56;;;29.29;50.66
804;BME280;25687;49.976;8.240;2023-09-07T08:51:48;100517.97;;;29.56;46.94
804;BME280;25687;49.976;8.240;2023-09-07T08:54:13;100512.78;;;29.35;49.68
804;BME280;25687;49.976;8.240;2023-09-07T08:56:39;100515.47;;;30.57;45.59
804;BME280;25687;49.976;8.240;2023-09-07T08:59:04;100515.84;;;30.34;45.90
804;BME280;25687;49.976;8.240;2023-09-07T09:01:30;100511.94;;;30.83;44.85
804;BME280;25687;49.976;8.240;2023-09-07T09:03:57;100516.53;;;32.06;40.93
804;BME280;25687;49.976;8.240;2023-09-07T09:06:23;100518.44;;;31.21;43.12
804;BME280;25687;49.976;8.240;2023-09-07T09:08:56;100513.25;;;31.33;41.48
804;BME280;25687;49.976;8.240;2023-09-07T09:11:23;100525.28;;;31.42;40.40
804;BME280;25687;49.976;8.240;2023-09-07T09:13:50;100520.03;;;29.68;43.26
804;BME280;25687;49.976;8.240;2023-09-07T09:16:15;100513.34;;;31.13;41.84
804;BME280;25687;49.976;8.240;2023-09-07T09:18:56;100516.97;;;29.57;46.30
804;BME280;25687;49.976;8.240;2023-09-07T09:21:22;100518.03;;;29.83;45.75
804;BME280;25687;49.976;8.240;2023-09-07T09:23:56;100509.84;;;29.78;45.61
804;BME280;25687;49.976;8.240;2023-09-07T09:26:22;100501.69;;;29.73;44.71
804;BME280;25687;49.976;8.240;2023-09-07T09:28:49;100502.34;;;28.91;47.10
804;BME280;25687;49.976;8.240;2023-09-07T09:31:17;100502.06;;;28.51;49.78
804;BME280;25687;49.976;8.240;2023-09-07T09:33:47;100498.22;;;28.54;49.75
804;BME280;25687;49.976;8.240;2023-09-07T09:36:13;100497.53;;;29.02;47.94
804;BME280;25687;49.976;8.240;2023-09-07T09:38:39;100491.59;;;30.50;43.83
804;BME280;25687;49.976;8.240;2023-09-07T09:41:05;100492.88;;;31.20;42.65
804;BME280;25687;49.976;8.240;2023-09-07T09:43:31;100499.09;;;30.80;43.25
804;BME280;25687;49.976;8.240;2023-09-07T09:45:57;100490.13;;;32.80;39.25
804;BME280;25687;49.976;8.240;2023-09-07T09:48:23;100498.94;;;32.37;38.89
804;BME280;25687;49.976;8.240;2023-09-07T09:50:49;100495.03;;;31.36;40.65
804;BME280;25687;49.976;8.240;2023-09-07T09:53:16;100498.69;;;32.38;38.83
804;BME280;25687;49.976;8.240;2023-09-07T09:55:44;100488.34;;;31.27;41.31
804;BME280;25687;49.976;8.240;2023-09-07T09:58:11;100479.44;;;31.01;41.03
804;BME280;25687;49.976;8.240;2023-09-07T10:00:37;100482.16;;;31.40;40.42
804;BME280;25687;49.976;8.240;2023-09-07T10:03:23;100483.00;;;30.68;42.29
804;BME280;25687;49.976;8.240;2023-09-07T10:05:51;100489.88;;;30.89;41.92
804;BME280;25687;49.976;8.240;2023-09-07T10:08:18;100473.09;;;30.96;42.75
804;BME280;25687;49.976;8.240;2023-09-07T10:10:46;100472.41;;;31.98;40.62
804;BME280;25687;49.976;8.240;2023-09-07T10:13:15;100471.59;;;31.65;40.75
804;BME280;25687;49.976;8.240;2023-09-07T10:15:42;100479.03;;;30.91;42.05
804;BME280;25687;49.976;8.240;2023-09-07T10:20:54;100471.50;;;31.40;40.62
804;BME280;25687;49.976;8.240;2023-09-07T10:23:22;100473.72;;;31.43;39.69
804;BME280;25687;49.976;8.240;2023-09-07T10:25:52;100465.84;;;29.90;43.08
804;BME280;25687;49.976;8.240;2023-09-07T10:28:22;100458.31;;;30.14;44.09
804;BME280;25687;49.976;8.240;2023-09-07T10:31:01;100471.59;;;30.01;44.16
804;BME280;25687;49.976;8.240;2023-09-07T10:33:27;100467.47;;;28.81;49.52
804;BME280;25687;49.976;8.240;2023-09-07T10:35:52;100455.72;;;28.05;53.46
804;BME280;25687;49.976;8.240;2023-09-07T10:38:18;100453.94;;;27.17;59.06
804;BME280;25687;49.976;8.240;2023-09-07T10:40:47;100450.31;;;26.58;66.30
804;BME280;25687;49.976;8.240;2023-09-07T10:43:12;100446.22;;;26.56;69.34
804;BME280;25687;49.976;8.240;2023-09-07T10:45:38;100439.72;;;26.29;70.96
804;BME280;25687;49.976;8.240;2023-09-07T10:48:03;100448.44;;;26.06;72.44
804;BME280;25687;49.976;8.240;2023-09-07T10:50:29;100441.63;;;25.88;74.45
804;BME280;25687;49.976;8.240;2023-09-07T10:52:54;100439.41;;;25.77;73.94
804;BME280;25687;49.976;8.240;2023-09-07T10:55:20;100435.13;;;25.76;75.18
804;BME280;25687;49.976;8.240;2023-09-07T10:57:46;100430.16;;;25.81;74.31
804;BME280;25687;49.976;8.240;2023-09-07T11:00:13;100437.66;;;25.69;76.37
804;BME280;25687;49.976;8.240;2023-09-07T11:02:42;100441.06;;;25.78;75.37
804;BME280;25687;49.976;8.240;2023-09-07T11:05:08;100433.09;;;25.86;73.38
804;BME280;25687;49.976;8.240;2023-09-07T11:07:34;100437.72;;;25.84;74.22
804;BME280;25687;49.976;8.240;2023-09-07T11:09:59;100433.19;;;25.70;75.10
804;BME280;25687;49.976;8.240;2023-09-07T11:12:25;100436.69;;;25.70;73.93
804;BME280;25687;49.976;8.240;2023-09-07T11:14:51;100428.97;;;25.84;71.63
804;BME280;25687;49.976;8.240;2023-09-07T11:17:17;100432.94;;;25.88;73.48
804;BME280;25687;49.976;8.240;2023-09-07T11:19:42;100425.34;;;25.85;75.95
804;BME280;25687;49.976;8.240;2023-09-07T11:22:11;100425.84;;;26.12;76.63
804;BME280;25687;49.976;8.240;2023-09-07T11:24:37;100423.72;;;26.07;75.49
804;BME280;25687;49.976;8.240;2023-09-07T11:27:02;100422.03;;;25.91;74.42
804;BME280;25687;49.976;8.240;2023-09-07T11:29:31;100421.75;;;26.09;78.00
804;BME280;25687;49.976;8.240;2023-09-07T11:32:06;100419.25;;;26.61;73.39
804;BME280;25687;49.976;8.240;2023-09-07T11:34:31;100419.09;;;26.32;69.96
804;BME280;25687;49.976;8.240;2023-09-07T11:36:57;100416.78;;;26.29;69.60
804;BME280;25687;49.976;8.240;2023-09-07T11:39:22;100408.50;;;26.17;72.14
804;BME280;25687;49.976;8.240;2023-09-07T11:41:48;100407.66;;;26.17;72.33
804;BME280;25687;49.976;8.240;2023-09-07T11:44:13;100408.16;;;26.35;72.48
804;BME280;25687;49.976;8.240;2023-09-07T11:46:39;100413.63;;;26.34;66.78
804;BME280;25687;49.976;8.240;2023-09-07T11:49:04;100409.81;;;26.36;67.20
804;BME280;25687;49.976;8.240;2023-09-07T11:51:30;100401.69;;;26.38;64.51
804;BME280;25687;49.976;8.240;2023-09-07T11:53:56;100397.44;;;26.52;61.70
804;BME280;25687;49.976;8.240;2023-09-07T11:56:21;100397.16;;;26.62;64.50
804;BME280;25687;49.976;8.240;2023-09-07T11:58:46;100398.91;;;26.69;61.86
804;BME280;25687;49.976;8.240;2023-09-07T12:01:13;100389.16;;;27.00;62.58
804;BME280;25687;49.976;8.240;2023-09-07T12:03:42;100395.88;;;27.02;58.77
804;BME280;25687;49.976;8.240;2023-09-07T12:06:08;100383.63;;;26.80;61.67
804;BME280;25687;49.976;8.240;2023-09-07T12:08:33;100386.81;;;26.60;60.66
804;BME280;25687;49.976;8.240;2023-09-07T12:10:58;100382.91;;;26.56;62.55
804;BME280;25687;49.976;8.240;2023-09-07T12:13:23;100382.53;;;26.44;64.69
804;BME280;25687;49.976;8.240;2023-09-07T12:15:50;100378.88;;;26.60;65.88
804;BME280;25687;49.976;8.240;2023-09-07T12:18:16;100375.72;;;26.65;64.77
804;BME280;25687;49.976;8.240;2023-09-07T12:20:41;100375.09;;;26.78;64.32
804;BME280;25687;49.976;8.240;2023-09-07T12:23:07;100371.81;;;26.90;63.29
804;BME280;25687;49.976;8.240;2023-09-07T12:25:32;100375.25;;;26.91;66.14
804;BME280;25687;49.976;8.240;2023-09-07T12:27:57;100364.06;;;26.89;65.10
804;BME280;25687;49.976;8.240;2023-09-07T12:30:23;100366.81;;;26.81;67.13
804;BME280;25687;49.976;8.240;2023-09-07T12:32:49;100361.69;;;26.79;68.49
804;BME280;25687;49.976;8.240;2023-09-07T12:35:15;100363.31;;;26.95;67.53
804;BME280;25687;49.976;8.240;2023-09-07T12:37:41;100353.28;;;27.05;64.73
804;BME280;25687;49.976;8.240;2023-09-07T12:40:06;100354.81;;;27.15;65.81
804;BME280;25687;49.976;8.240;2023-09-07T12:42:47;100364.88;;;27.26;65.16
804;BME280;25687;49.976;8.240;2023-09-07T12:45:12;100366.63;;;27.19;64.76
804;BME280;25687;49.976;8.240;2023-09-07T12:47:40;100367.34;;;27.28;59.28
804;BME280;25687;49.976;8.240;2023-09-07T12:50:06;100360.28;;;27.35;59.14
804;BME280;25687;49.976;8.240;2023-09-07T12:52:33;100366.50;;;27.42;56.89
804;BME280;25687;49.976;8.240;2023-09-07T12:54:59;100360.84;;;27.45;57.09
804;BME280;25687;49.976;8.240;2023-09-07T12:57:24;100359.41;;;27.43;59.70
804;BME280;25687;49.976;8.240;2023-09-07T12:59:50;100353.09;;;27.44;57.80
804;BME280;25687;49.976;8.240;2023-09-07T13:02:15;100357.56;;;27.65;57.41
804;BME280;25687;49.976;8.240;2023-09-07T13:04:40;100348.50;;;27.74;55.50